Time;durP1;ratioP1;P1;durP2;ratioP2;P2;SDS_P1;SDS_P2;PMS_P1;PMS_P2;Temp;Humidity;BMP_temperature;BMP_pressure;BME280_temperature;BME280_humidity;BME280_pressure;Samples;Min_cycle;Max_cycle;Signal;HPM_P1;HPM_P2
2021/09/22 00:00:19;;;;;;;;;6.00;6.00;;;;;17.18;51.43;99083.09;4849874;28;102367;-82
2021/09/22 00:02:46;;;;;;;;;4.75;4.75;;;;;17.15;51.23;99081.69;4804467;28;102429;-82
2021/09/22 00:05:14;;;;;;;;;9.00;7.50;;;;;17.16;51.73;99066.09;4835991;28;104664;-83
2021/09/22 00:07:41;;;;;;;;;6.00;6.00;;;;;17.13;51.21;99069.28;4842249;28;102613;-82
2021/09/22 00:10:11;;;;;;;;;6.25;5.75;;;;;17.14;51.13;99065.50;4854641;28;102136;-82
2021/09/22 00:12:38;;;;;;;;;5.50;5.50;;;;;17.10;51.45;99062.41;4854892;28;102647;-82
2021/09/22 00:15:07;;;;;;;;;5.00;4.75;;;;;17.10;51.17;99054.22;4854152;28;104041;-83
2021/09/22 00:17:34;;;;;;;;;4.00;4.00;;;;;17.10;52.02;99058.84;4819427;28;106179;-82
2021/09/22 00:20:01;;;;;;;;;6.00;6.00;;;;;17.12;51.33;99064.88;4850469;28;102444;-83
2021/09/22 00:22:28;;;;;;;;;7.00;6.25;;;;;17.14;51.13;99051.84;4855888;28;104239;-83
2021/09/22 00:24:55;;;;;;;;;6.25;5.25;;;;;17.13;51.93;99059.19;4856677;28;104261;-82
2021/09/22 00:27:23;;;;;;;;;6.75;6.75;;;;;17.14;51.66;99054.56;4857003;28;104573;-82
2021/09/22 00:29:50;;;;;;;;;5.00;5.00;;;;;17.15;51.85;99058.97;4856376;28;102358;-83
2021/09/22 00:32:17;;;;;;;;;5.00;5.00;;;;;17.14;51.51;99055.41;4852655;28;104634;-82
2021/09/22 00:34:44;;;;;;;;;4.50;4.00;;;;;17.13;51.53;99055.63;4853310;28;104288;-83
2021/09/22 00:37:12;;;;;;;;;5.75;5.75;;;;;17.14;51.20;99057.31;4848599;28;105074;-83
2021/09/22 00:39:39;;;;;;;;;6.00;5.00;;;;;17.14;51.53;99057.31;4853276;28;102370;-83
2021/09/22 00:42:06;;;;;;;;;5.25;5.25;;;;;17.12;51.09;99052.06;4860807;28;102510;-82
2021/09/22 00:44:48;;;;;;;;;6.00;5.00;;;;;17.12;51.34;99065.72;4835461;28;104485;-83
2021/09/22 00:47:16;;;;;;;;;5.00;5.00;;;;;17.10;51.19;99061.56;4853640;28;104861;-83
2021/09/22 00:49:43;;;;;;;;;6.00;5.75;;;;;17.09;51.09;99052.53;4859777;28;102728;-83
2021/09/22 00:52:12;;;;;;;;;5.50;5.00;;;;;17.10;51.55;99054.22;4841088;28;105364;-82
2021/09/22 00:54:40;;;;;;;;;5.00;4.50;;;;;17.07;51.35;99049.19;4858578;28;104115;-82
2021/09/22 00:57:07;;;;;;;;;6.00;4.00;;;;;17.08;51.06;99052.75;4861909;28;102428;-83
2021/09/22 00:59:34;;;;;;;;;5.50;5.00;;;;;17.08;52.01;99047.28;4814854;28;102859;-82
2021/09/22 01:02:02;;;;;;;;;5.25;4.75;;;;;17.07;51.27;99040.16;4822737;28;103024;-82
2021/09/22 01:04:29;;;;;;;;;5.00;5.00;;;;;17.09;50.85;99041.59;4812466;28;104191;-82
2021/09/22 01:06:56;;;;;;;;;7.00;6.25;;;;;17.10;51.59;99054.22;4848329;28;103737;-82
2021/09/22 01:09:24;;;;;;;;;5.00;4.00;;;;;17.12;51.62;99040.28;4807360;28;102573;-82
2021/09/22 01:11:51;;;;;;;;;5.00;5.00;;;;;17.12;51.27;99040.28;4821753;28;102820;-82
2021/09/22 01:14:22;;;;;;;;;5.00;5.00;;;;;17.12;51.24;99035.66;4845191;28;103226;-83
2021/09/22 01:16:50;;;;;;;;;5.25;5.25;;;;;17.10;51.21;99032.34;4860689;28;103446;-83
2021/09/22 01:19:18;;;;;;;;;5.00;4.75;;;;;17.10;51.31;99028.78;4836151;28;103141;-82
2021/09/22 01:21:46;;;;;;;;;6.00;5.25;;;;;17.10;51.79;99031.50;4836300;28;102451;-82
2021/09/22 01:24:14;;;;;;;;;5.00;5.00;;;;;17.08;50.79;99019.97;4859130;28;104072;-82
2021/09/22 01:26:42;;;;;;;;;6.00;5.00;;;;;17.08;51.17;99028.16;4834966;28;103722;-82
2021/09/22 01:29:10;;;;;;;;;5.00;4.00;;;;;17.07;51.54;99023.75;4821785;28;102151;-82
2021/09/22 01:31:37;;;;;;;;;5.75;5.00;;;;;17.07;50.92;99021.84;4847692;28;102526;-82
2021/09/22 01:34:06;;;;;;;;;4.50;4.25;;;;;17.05;50.97;99024.00;4846607;28;104471;-82
2021/09/22 01:36:34;;;;;;;;;4.00;4.00;;;;;17.05;51.22;99025.91;4837493;28;102541;-83
2021/09/22 01:39:01;;;;;;;;;5.00;5.00;;;;;17.04;51.85;99021.50;4847882;28;104686;-82
2021/09/22 01:41:28;;;;;;;;;6.00;5.25;;;;;17.04;51.78;99011.41;4826477;28;105936;-82
2021/09/22 01:43:55;;;;;;;;;4.00;4.00;;;;;17.05;51.67;99017.72;4848852;28;109242;-83
2021/09/22 01:46:22;;;;;;;;;4.75;4.75;;;;;17.07;51.24;99015.56;4803294;28;104229;-82
2021/09/22 01:48:49;;;;;;;;;6.00;5.00;;;;;17.07;51.72;99004.63;4852834;28;102852;-82
2021/09/22 01:51:16;;;;;;;;;5.00;4.00;;;;;17.10;51.27;99006.91;4859829;28;102980;-83
2021/09/22 01:53:43;;;;;;;;;5.00;4.00;;;;;17.08;51.74;99007.13;4848734;28;104050;-82
2021/09/22 01:56:10;;;;;;;;;4.25;4.00;;;;;17.08;51.86;99004.41;4862842;28;102169;-82
2021/09/22 01:58:37;;;;;;;;;4.00;4.00;;;;;17.07;51.98;99002.72;4843083;28;102493;-83
2021/09/22 02:01:06;;;;;;;;;4.75;4.75;;;;;17.06;51.84;99000.25;4838998;28;102617;-82
2021/09/22 02:03:34;;;;;;;;;4.00;4.00;;;;;17.06;51.75;98992.06;4850154;28;104629;-82
2021/09/22 02:06:01;;;;;;;;;4.00;4.00;;;;;17.04;52.01;99002.38;4857552;28;102344;-83
2021/09/22 02:08:28;;;;;;;;;3.00;2.33;;;;;17.03;51.35;98995.22;4838473;28;104795;-83
2021/09/22 02:10:55;;;;;;;;;4.75;4.00;;;;;17.01;51.54;98997.38;4860514;28;102909;-83
2021/09/22 02:13:22;;;;;;;;;4.00;3.50;;;;;17.01;51.65;98994.66;4849013;28;104074;-82
2021/09/22 02:15:49;;;;;;;;;4.25;3.25;;;;;17.02;51.78;98990.88;4852226;28;102219;-82
2021/09/22 02:18:16;;;;;;;;;5.00;5.00;;;;;17.01;51.13;98994.66;4841812;28;102568;-82
2021/09/22 02:20:43;;;;;;;;;4.00;4.00;;;;;17.02;50.84;98985.41;4852853;28;102669;-82
2021/09/22 02:23:10;;;;;;;;;4.50;4.50;;;;;17.02;51.31;98983.47;4856569;28;104332;-82
2021/09/22 02:25:37;;;;;;;;;4.50;4.50;;;;;17.03;51.00;98973.38;4854263;28;104490;-82
2021/09/22 02:28:05;;;;;;;;;4.00;4.00;;;;;17.04;50.79;98978.63;4852093;28;104242;-82
2021/09/22 02:30:32;;;;;;;;;4.00;4.00;;;;;17.04;51.21;98969.59;4857354;28;102788;-82
2021/09/22 02:32:59;;;;;;;;;5.00;4.00;;;;;17.06;50.98;98970.19;4863172;28;103886;-83
2021/09/22 02:35:26;;;;;;;;;3.00;3.00;;;;;17.05;51.75;98974.00;4854447;28;102589;-83
2021/09/22 02:37:53;;;;;;;;;3.25;3.25;;;;;17.04;51.88;98980.50;4856293;28;103063;-82
2021/09/22 02:40:20;;;;;;;;;4.75;3.50;;;;;17.02;51.86;98978.00;4824990;28;103388;-83
2021/09/22 02:42:47;;;;;;;;;4.00;3.50;;;;;17.03;51.86;98970.66;4846875;28;104277;-82
2021/09/22 02:45:14;;;;;;;;;3.25;3.25;;;;;17.02;51.22;98969.00;4843577;28;102539;-83
2021/09/22 02:47:42;;;;;;;;;3.25;2.50;;;;;17.02;51.12;98966.28;4845344;28;104133;-83
2021/09/22 02:50:10;;;;;;;;;4.00;3.25;;;;;17.00;51.67;98971.97;4856235;28;105684;-83
2021/09/22 02:52:37;;;;;;;;;4.33;3.00;;;;;16.99;51.89;98964.00;4837347;28;104229;-82
2021/09/22 02:55:04;;;;;;;;;4.00;3.25;;;;;16.99;51.21;98964.81;4845967;28;104034;-83
2021/09/22 02:57:31;;;;;;;;;3.00;3.00;;;;;16.98;51.69;98967.78;4850628;28;105074;-83
2021/09/22 02:59:59;;;;;;;;;3.00;3.00;;;;;16.99;51.68;98964.81;4851321;28;102224;-83
2021/09/22 03:02:26;;;;;;;;;3.00;3.00;;;;;16.97;51.74;98952.47;4851824;28;109002;-83
2021/09/22 03:04:53;;;;;;;;;5.00;4.00;;;;;16.99;51.50;98953.06;4834994;28;104997;-82
2021/09/22 03:07:20;;;;;;;;;3.00;2.00;;;;;17.01;51.08;98956.41;4822782;28;102303;-82
2021/09/22 03:09:48;;;;;;;;;4.50;4.00;;;;;17.00;51.34;98954.72;4857320;28;102599;-82
2021/09/22 03:12:15;;;;;;;;;4.25;3.75;;;;;17.00;51.65;98952.84;4863077;28;104183;-82
2021/09/22 03:14:42;;;;;;;;;4.25;3.50;;;;;17.00;51.63;98946.53;4845373;28;103204;-82
2021/09/22 03:17:09;;;;;;;;;4.33;3.33;;;;;16.99;51.28;98942.13;4859206;28;102706;-83
2021/09/22 03:19:36;;;;;;;;;3.00;3.00;;;;;16.99;51.91;98955.78;4858254;28;102550;-82
2021/09/22 03:22:03;;;;;;;;;3.00;3.00;;;;;16.97;51.72;98949.75;4854607;28;104110;-82
2021/09/22 03:24:31;;;;;;;;;4.00;3.50;;;;;16.98;51.79;98948.66;4854792;28;103050;-83
2021/09/22 03:27:01;;;;;;;;;3.25;3.00;;;;;16.98;51.68;98948.66;4860077;28;102239;-83
2021/09/22 03:29:28;;;;;;;;;4.75;3.75;;;;;16.97;51.68;98944.28;4851939;28;104738;-83
2021/09/22 03:31:55;;;;;;;;;4.25;3.75;;;;;16.94;50.99;98946.41;4855320;28;108781;-83
2021/09/22 03:34:22;;;;;;;;;4.00;3.00;;;;;16.93;51.74;98944.72;4854407;28;102249;-82
2021/09/22 03:36:49;;;;;;;;;3.00;2.75;;;;;16.95;51.98;98956.28;4849779;28;102543;-82
2021/09/22 03:39:16;;;;;;;;;2.50;2.00;;;;;16.94;51.94;98949.13;4858249;28;104363;-83
2021/09/22 03:41:44;;;;;;;;;4.00;3.00;;;;;16.93;51.35;98944.72;4852578;28;107637;-82
2021/09/22 03:44:11;;;;;;;;;2.00;2.00;;;;;16.94;51.25;98946.41;4855670;28;104346;-82
2021/09/22 03:46:38;;;;;;;;;2.75;2.75;;;;;16.93;51.34;98941.19;4852650;28;103079;-83
2021/09/22 03:49:05;;;;;;;;;4.25;4.00;;;;;16.96;51.98;98932.53;4849528;28;103316;-82
2021/09/22 03:51:32;;;;;;;;;4.25;4.00;;;;;16.95;51.28;98928.94;4848520;28;104025;-82
2021/09/22 03:53:59;;;;;;;;;3.00;3.00;;;;;16.97;51.65;98930.63;4858726;28;102820;-82
2021/09/22 03:56:26;;;;;;;;;3.00;2.00;;;;;16.96;51.27;98935.25;4846529;28;103515;-82
2021/09/22 03:58:53;;;;;;;;;2.00;2.00;;;;;16.95;51.21;98931.69;4865812;28;102721;-83
2021/09/22 04:01:20;;;;;;;;;3.25;3.25;;;;;16.97;51.81;98927.88;4854522;28;103548;-82
2021/09/22 04:03:48;;;;;;;;;3.00;3.00;;;;;16.95;51.19;98936.31;4835609;28;102181;-83
2021/09/22 04:06:15;;;;;;;;;0.50;0.00;;;;;16.93;51.99;98933.81;4857854;28;103773;-82
2021/09/22 04:08:42;;;;;;;;;4.00;3.00;;;;;16.93;51.81;98933.00;4853740;28;102541;-82
2021/09/22 04:11:09;;;;;;;;;3.00;3.00;;;;;16.93;51.65;98939.25;4834589;28;104039;-82
2021/09/22 04:13:36;;;;;;;;;3.50;3.00;;;;;16.93;50.96;98933.81;4848451;28;102292;-83
2021/09/22 04:16:05;;;;;;;;;3.00;3.00;;;;;16.92;51.85;98925.88;4852667;28;104842;-82
2021/09/22 04:18:33;;;;;;;;;2.00;2.00;;;;;16.90;51.17;98926.09;4829129;28;102684;-82
2021/09/22 04:21:00;;;;;;;;;3.00;3.00;;;;;16.90;51.84;98937.00;4858982;28;103939;-82
2021/09/22 04:23:27;;;;;;;;;3.00;3.00;;;;;16.90;51.64;98931.53;4827494;28;105955;-83
2021/09/22 04:25:56;;;;;;;;;4.00;3.00;;;;;16.91;51.83;98932.38;4852669;28;104747;-82
2021/09/22 04:28:23;;;;;;;;;1.67;1.67;;;;;16.92;50.95;98939.53;4854285;28;102675;-83
2021/09/22 04:30:50;;;;;;;;;3.25;3.25;;;;;16.92;51.32;98942.25;4850055;28;104315;-82
2021/09/22 04:33:17;;;;;;;;;2.00;2.00;;;;;16.93;51.75;98942.00;4860070;28;103653;-82
2021/09/22 04:35:44;;;;;;;;;2.75;2.00;;;;;16.93;51.17;98941.19;4855465;28;102565;-83
2021/09/22 04:38:11;;;;;;;;;3.00;3.00;;;;;16.93;51.80;98933.81;4857246;28;104186;-82
2021/09/22 04:40:38;;;;;;;;;3.00;2.75;;;;;16.92;50.76;98939.53;4857594;28;104102;-82
2021/09/22 04:43:05;;;;;;;;;4.00;3.00;;;;;16.89;51.29;98938.06;4847877;28;102595;-83
2021/09/22 04:45:33;;;;;;;;;3.00;2.33;;;;;16.92;50.96;98948.56;4856981;28;103234;-83
2021/09/22 04:48:00;;;;;;;;;2.00;2.00;;;;;16.89;51.70;98954.47;4870943;28;102796;-82
2021/09/22 04:50:28;;;;;;;;;4.00;3.33;;;;;16.91;51.09;98952.34;4811784;28;110898;-82
2021/09/22 04:52:55;;;;;;;;;3.00;2.00;;;;;16.91;51.55;98967.91;4847390;28;102771;-83
2021/09/22 04:55:25;;;;;;;;;3.00;3.00;;;;;16.91;51.38;98955.06;4817430;28;103650;-83
2021/09/22 04:57:53;;;;;;;;;2.00;2.00;;;;;16.90;51.83;98958.03;4851856;28;102477;-82
2021/09/22 05:00:20;;;;;;;;;3.75;3.00;;;;;16.91;51.17;98960.53;4844761;28;103283;-82
2021/09/22 05:02:47;;;;;;;;;2.00;2.00;;;;;16.90;51.48;98964.31;4863591;28;104327;-82
2021/09/22 05:05:14;;;;;;;;;3.00;2.00;;;;;16.88;52.05;98958.28;4857699;28;102385;-83
2021/09/22 05:07:41;;;;;;;;;2.50;2.50;;;;;16.90;51.75;98961.59;4855621;28;105354;-82
2021/09/22 05:10:09;;;;;;;;;4.00;3.00;;;;;16.90;51.01;98964.31;4858775;28;104082;-82
2021/09/22 05:12:36;;;;;;;;;2.00;2.00;;;;;16.91;51.05;98966.00;4849719;28;103024;-82
2021/09/22 05:15:04;;;;;;;;;3.33;3.33;;;;;16.92;51.97;98964.09;4859225;28;102534;-82
2021/09/22 05:17:32;;;;;;;;;3.00;2.25;;;;;16.92;52.02;98970.41;4846780;28;105168;-83
2021/09/22 05:19:59;;;;;;;;;3.00;3.00;;;;;16.90;51.82;98967.06;4861006;28;104505;-83
2021/09/22 05:22:26;;;;;;;;;3.00;2.75;;;;;16.93;51.91;98969.31;4862816;28;102700;-83
2021/09/22 05:24:53;;;;;;;;;2.00;2.00;;;;;16.92;51.64;98981.34;4854424;28;102555;-83
2021/09/22 05:27:20;;;;;;;;;3.00;3.00;;;;;16.92;51.58;98975.88;4854551;28;102816;-83
2021/09/22 05:29:47;;;;;;;;;2.00;2.00;;;;;16.90;51.00;98971.69;4863201;28;104082;-82
2021/09/22 05:32:15;;;;;;;;;2.00;2.00;;;;;16.90;51.05;98972.53;4836797;28;102858;-83
2021/09/22 05:34:42;;;;;;;;;2.67;2.67;;;;;16.89;51.58;98976.31;4844905;28;102356;-83
2021/09/22 05:37:09;;;;;;;;;3.00;3.00;;;;;16.89;51.72;98989.97;4868320;28;102539;-83
2021/09/22 05:39:36;;;;;;;;;4.00;3.67;;;;;16.89;51.22;98991.88;4859980;28;104134;-82
2021/09/22 05:42:03;;;;;;;;;2.00;2.00;;;;;16.88;51.76;98993.78;4858510;28;105798;-82
2021/09/22 05:44:31;;;;;;;;;2.00;2.00;;;;;16.89;51.66;98987.25;4866580;28;102511;-83
2021/09/22 05:46:58;;;;;;;;;1.00;1.00;;;;;16.88;51.08;98991.06;4860181;28;102644;-83
2021/09/22 05:49:26;;;;;;;;;2.00;1.33;;;;;16.90;51.76;98994.38;4853915;28;104434;-82
2021/09/22 05:51:53;;;;;;;;;3.00;2.25;;;;;16.90;51.87;98986.19;4865011;28;103113;-82
2021/09/22 05:54:23;;;;;;;;;2.00;2.00;;;;;16.90;52.06;98986.19;4858589;28;103162;-83
2021/09/22 05:56:50;;;;;;;;;2.67;2.00;;;;;16.92;51.77;98985.97;4860427;28;102398;-82
2021/09/22 05:59:17;;;;;;;;;2.00;2.00;;;;;16.93;51.64;98980.25;4859511;28;103543;-83
2021/09/22 06:01:44;;;;;;;;;3.33;2.67;;;;;16.94;51.13;98979.19;4857378;28;102894;-83
2021/09/22 06:04:11;;;;;;;;;3.67;3.00;;;;;16.95;51.16;98978.13;4846717;28;102724;-83
2021/09/22 06:06:39;;;;;;;;;2.00;2.00;;;;;16.97;51.58;98979.78;4865499;28;102603;-83
2021/09/22 06:09:06;;;;;;;;;1.33;1.33;;;;;16.98;50.68;98978.72;4856436;28;104323;-83
2021/09/22 06:11:33;;;;;;;;;2.00;2.00;;;;;16.96;51.57;98989.88;4866451;28;104621;-83
2021/09/22 06:14:00;;;;;;;;;2.33;2.33;;;;;16.95;50.91;98989.06;4860283;28;104106;-83
2021/09/22 06:16:27;;;;;;;;;2.75;2.75;;;;;16.96;51.16;98987.16;4842656;28;102685;-83
2021/09/22 06:18:54;;;;;;;;;3.00;3.00;;;;;16.93;51.06;98977.50;4864082;28;104346;-83
2021/09/22 06:21:21;;;;;;;;;2.50;2.00;;;;;16.94;50.57;98990.09;4862322;28;103555;-83
2021/09/22 06:23:52;;;;;;;;;2.00;2.00;;;;;16.98;51.30;98984.16;4859784;28;103246;-83
2021/09/22 06:26:21;;;;;;;;;3.00;3.00;;;;;16.98;51.04;98995.94;4859036;28;102415;-83
2021/09/22 06:28:48;;;;;;;;;2.00;2.00;;;;;16.96;50.81;98992.63;4851999;28;104823;-83
2021/09/22 06:31:15;;;;;;;;;2.00;1.67;;;;;16.98;51.66;98989.63;4835950;28;102692;-82
2021/09/22 06:33:43;;;;;;;;;3.50;3.50;;;;;17.00;51.22;98992.97;4848648;28;103670;-83
2021/09/22 06:36:10;;;;;;;;;2.25;2.25;;;;;17.02;51.51;98996.31;4846275;28;102301;-83
2021/09/22 06:38:37;;;;;;;;;3.00;2.00;;;;;17.03;50.35;98997.97;4856183;28;104018;-82
2021/09/22 06:41:05;;;;;;;;;1.50;1.50;;;;;17.04;51.36;99000.47;4858325;28;104900;-83
2021/09/22 06:43:32;;;;;;;;;3.25;2.00;;;;;17.04;50.88;98995.00;4855371;28;103029;-83
2021/09/22 06:45:59;;;;;;;;;3.00;2.25;;;;;17.06;51.45;98998.34;4840366;28;102647;-83
2021/09/22 06:48:26;;;;;;;;;2.00;2.00;;;;;17.05;51.44;99009.50;4849254;28;104073;-82
2021/09/22 06:50:53;;;;;;;;;2.00;1.00;;;;;17.06;51.65;99003.00;4861876;28;103355;-83
2021/09/22 06:53:20;;;;;;;;;2.00;2.00;;;;;17.07;51.39;99004.63;4863293;28;102627;-83
2021/09/22 06:55:47;;;;;;;;;2.00;2.00;;;;;17.06;50.89;99003.81;4859569;28;103701;-83
2021/09/22 06:58:15;;;;;;;;;2.00;2.00;;;;;17.07;50.20;99007.38;4858003;28;104057;-83
2021/09/22 07:00:42;;;;;;;;;1.00;1.00;;;;;17.07;51.18;99004.63;4861952;28;102496;-83
2021/09/22 07:03:12;;;;;;;;;2.00;2.00;;;;;17.07;51.21;99004.63;4857002;28;104971;-83
2021/09/22 07:05:39;;;;;;;;;3.67;2.00;;;;;17.06;50.95;99003.00;4834813;28;102527;-82
2021/09/22 07:08:06;;;;;;;;;2.00;2.00;;;;;17.06;50.61;99008.47;4863752;28;103979;-83
2021/09/22 07:10:34;;;;;;;;;1.33;1.33;;;;;17.07;51.45;99002.72;4865310;28;104938;-83
2021/09/22 07:13:01;;;;;;;;;3.00;2.00;;;;;17.08;51.16;99004.41;4855114;28;103731;-83
2021/09/22 07:15:28;;;;;;;;;2.00;2.00;;;;;17.08;51.54;99012.59;4861897;28;103258;-83
2021/09/22 07:17:56;;;;;;;;;2.00;2.00;;;;;17.09;50.46;99017.00;4858201;28;104309;-82
2021/09/22 07:20:23;;;;;;;;;3.00;2.00;;;;;17.09;50.81;99014.28;4827846;28;102452;-83
2021/09/22 07:22:50;;;;;;;;;2.00;2.00;;;;;17.09;50.40;99013.44;4851443;28;104700;-83
2021/09/22 07:25:17;;;;;;;;;1.00;1.00;;;;;17.09;51.21;99017.00;4850040;28;102630;-83
2021/09/22 07:27:44;;;;;;;;;1.67;1.67;;;;;17.09;51.41;99016.19;4836702;28;104080;-83
2021/09/22 07:30:13;;;;;;;;;1.33;1.33;;;;;17.10;50.72;99023.31;4860521;28;102500;-83
2021/09/22 07:32:42;;;;;;;;;2.00;2.00;;;;;17.11;50.68;99022.25;4855289;28;102619;-83
2021/09/22 07:35:10;;;;;;;;;2.00;1.67;;;;;17.12;51.19;99026.63;4851952;28;102538;-83
2021/09/22 07:37:37;;;;;;;;;2.00;1.67;;;;;17.12;51.02;99029.38;4862273;28;104079;-83
2021/09/22 07:40:05;;;;;;;;;1.00;1.00;;;;;17.12;50.61;99032.94;4861540;28;102587;-83
2021/09/22 07:42:32;;;;;;;;;3.00;3.00;;;;;17.11;50.75;99039.44;4862189;28;103494;-83
2021/09/22 07:44:59;;;;;;;;;0.00;0.00;;;;;17.12;50.45;99040.28;4858356;28;102641;-83
2021/09/22 07:47:26;;;;;;;;;1.00;1.00;;;;;17.11;50.30;99044.13;4853624;28;103917;-82
2021/09/22 07:49:53;;;;;;;;;2.00;2.00;;;;;17.10;50.56;99045.16;4837227;28;102589;-83
2021/09/22 07:52:20;;;;;;;;;1.00;1.00;;;;;17.11;51.17;99044.13;4863246;28;102653;-83
2021/09/22 07:54:48;;;;;;;;;1.67;0.67;;;;;17.12;51.62;99046.59;4855032;28;102437;-82
2021/09/22 07:57:17;;;;;;;;;2.00;1.33;;;;;17.10;51.37;99048.75;4857286;28;104241;-83
2021/09/22 07:59:45;;;;;;;;;2.00;2.00;;;;;17.12;50.98;99053.97;4864816;28;104411;-83
2021/09/22 08:02:12;;;;;;;;;1.00;1.00;;;;;17.13;50.62;99052.91;4854828;28;102944;-83
2021/09/22 08:04:39;;;;;;;;;2.00;2.00;;;;;17.12;50.65;99056.69;4864887;28;102720;-83
2021/09/22 08:07:10;;;;;;;;;2.00;2.00;;;;;17.13;50.59;99069.28;4863959;28;104263;-83
2021/09/22 08:09:37;;;;;;;;;1.33;1.33;;;;;17.12;51.04;99064.88;4842730;28;102747;-83
2021/09/22 08:12:05;;;;;;;;;2.33;2.00;;;;;17.13;51.26;99067.41;4867573;28;103882;-83
2021/09/22 08:14:34;;;;;;;;;1.00;1.00;;;;;17.13;50.92;99069.28;4854430;28;102460;-83
2021/09/22 08:17:02;;;;;;;;;2.00;2.00;;;;;17.13;51.12;99063.81;4859595;28;109083;-83
2021/09/22 08:19:29;;;;;;;;;1.67;1.00;;;;;17.13;51.07;99074.75;4865281;28;102620;-83
2021/09/22 08:21:57;;;;;;;;;1.67;1.00;;;;;17.13;50.41;99063.81;4858676;28;102435;-83
2021/09/22 08:24:28;;;;;;;;;1.00;1.00;;;;;17.13;50.56;99061.94;4859948;28;102581;-83
2021/09/22 08:26:56;;;;;;;;;2.00;2.00;;;;;17.13;50.78;99061.09;4866133;28;104216;-83
2021/09/22 08:29:23;;;;;;;;;2.00;2.00;;;;;17.14;51.07;99065.50;4835890;28;103598;-83
2021/09/22 08:31:50;;;;;;;;;1.00;1.00;;;;;17.14;51.39;99057.31;4856639;28;102207;-83
2021/09/22 08:34:17;;;;;;;;;1.00;1.00;;;;;17.14;50.63;99060.88;4835514;28;102546;-83
2021/09/22 08:36:44;;;;;;;;;2.00;2.00;;;;;17.15;51.28;99056.25;4856459;28;104556;-83
2021/09/22 08:39:12;;;;;;;;;2.33;2.33;;;;;17.16;50.69;99060.63;4856644;28;102314;-82
2021/09/22 08:41:40;;;;;;;;;1.67;1.00;;;;;17.15;50.89;99067.19;4836817;28;102383;-83
2021/09/22 08:44:08;;;;;;;;;2.00;1.67;;;;;17.16;50.32;99075.13;4835846;28;102774;-83
2021/09/22 08:46:35;;;;;;;;;2.00;1.00;;;;;17.16;50.69;99072.38;4856976;28;104152;-83
2021/09/22 08:49:03;;;;;;;;;1.00;1.00;;;;;17.17;50.47;99078.69;4868363;28;102706;-82
2021/09/22 08:51:30;;;;;;;;;1.00;1.00;;;;;17.16;51.21;99075.13;4841619;28;105716;-83
2021/09/22 08:53:57;;;;;;;;;2.00;1.00;;;;;17.17;50.92;99070.50;4865563;28;102180;-83
2021/09/22 08:56:25;;;;;;;;;2.00;2.00;;;;;17.17;50.44;99070.50;4855925;28;104279;-82
2021/09/22 08:58:52;;;;;;;;;1.00;1.00;;;;;17.17;51.04;99073.22;4855207;28;102552;-83
2021/09/22 09:01:20;;;;;;;;;3.33;2.00;;;;;17.17;51.03;99070.50;4858890;28;102326;-83
2021/09/22 09:03:49;;;;;;;;;1.67;1.00;;;;;17.18;50.36;99074.91;4847538;28;102311;-83
2021/09/22 09:06:25;;;;;;;;;2.67;1.67;;;;;17.19;50.68;99079.31;4858040;28;104266;-82
2021/09/22 09:08:55;;;;;;;;;2.00;2.00;;;;;17.19;50.62;99079.31;4863416;28;102722;-83
2021/09/22 09:11:32;;;;;;;;;1.00;1.00;;;;;17.18;50.08;99073.00;4864538;28;103767;-83
2021/09/22 09:14:02;;;;;;;;;1.00;1.00;;;;;17.20;50.73;99070.06;4864142;28;102749;-82
2021/09/22 09:16:38;;;;;;;;;2.00;2.00;;;;;17.21;50.06;99072.53;4863999;28;103071;-82
2021/09/22 09:19:17;;;;;;;;;2.00;1.00;;;;;17.22;50.52;99074.19;4867836;28;102112;-83
2021/09/22 09:22:07;;;;;;;;;1.00;1.00;;;;;17.21;50.46;99074.44;4841990;28;103073;-83
2021/09/22 09:24:45;;;;;;;;;2.00;2.00;;;;;17.21;50.43;99072.53;4855017;28;102447;-83
2021/09/22 09:27:18;;;;;;;;;1.67;1.67;;;;;17.23;50.42;99069.56;4861939;28;108733;-83
2021/09/22 09:29:49;;;;;;;;;2.00;2.00;;;;;17.23;50.62;99069.56;4865087;28;104046;-83
2021/09/22 09:32:20;;;;;;;;;1.67;1.67;;;;;17.23;51.21;99072.31;4838688;28;103773;-83
2021/09/22 09:35:09;;;;;;;;;2.00;2.00;;;;;17.21;50.05;99060.75;4864650;28;102681;-83
2021/09/22 09:37:46;;;;;;;;;2.67;2.67;;;;;17.24;51.61;99060.31;4854697;28;108764;-82
2021/09/22 09:40:22;;;;;;;;;1.00;1.00;;;;;17.24;50.54;99068.50;4834567;28;102395;-82
2021/09/22 09:42:51;;;;;;;;;2.00;1.67;;;;;17.23;50.97;99059.47;4860614;28;102156;-83
2021/09/22 09:45:20;;;;;;;;;1.00;1.00;;;;;17.25;51.51;99061.97;4870069;28;102633;-83
2021/09/22 09:48:06;;;;;;;;;1.00;1.00;;;;;17.25;50.16;99067.44;4840391;28;104240;-83
2021/09/22 09:50:46;;;;;;;;;2.00;1.25;;;;;17.25;50.51;99070.16;4858870;28;102263;-82
2021/09/22 09:53:24;;;;;;;;;2.00;1.50;;;;;17.25;50.18;99064.69;4862684;28;102459;-82
2021/09/22 09:55:51;;;;;;;;;1.00;1.00;;;;;17.27;51.45;99068.03;4859737;28;103537;-83
2021/09/22 09:58:21;;;;;;;;;2.00;2.00;;;;;17.28;50.65;99061.50;4860730;28;104289;-83
2021/09/22 10:00:50;;;;;;;;;2.00;2.00;;;;;17.29;50.67;99076.84;4856927;28;102684;-83
2021/09/22 10:03:19;;;;;;;;;1.00;1.00;;;;;17.29;50.66;99072.19;4853569;28;102324;-83
2021/09/22 10:05:48;;;;;;;;;1.67;1.67;;;;;17.30;50.75;99076.59;4857763;28;105312;-83
2021/09/22 10:08:15;;;;;;;;;2.00;2.00;;;;;17.31;50.21;99077.44;4842114;28;104079;-83
2021/09/22 10:10:46;;;;;;;;;1.33;1.33;;;;;17.31;51.62;99080.16;4859971;28;103755;-83
2021/09/22 10:13:14;;;;;;;;;2.00;2.00;;;;;17.31;50.73;99077.44;4844945;28;102331;-82
2021/09/22 10:15:42;;;;;;;;;1.67;1.00;;;;;17.31;51.21;99080.16;4869122;28;103670;-82
2021/09/22 10:18:09;;;;;;;;;1.67;1.67;;;;;17.30;51.17;99073.03;4859560;28;104118;-83
2021/09/22 10:20:41;;;;;;;;;2.00;1.33;;;;;17.33;51.63;99083.53;4851881;28;105410;-83
2021/09/22 10:23:21;;;;;;;;;1.33;1.33;;;;;17.32;50.55;99079.13;4867739;28;102690;-82
2021/09/22 10:25:49;;;;;;;;;3.00;2.00;;;;;17.32;50.94;99073.66;4843353;28;105820;-82
2021/09/22 10:28:16;;;;;;;;;2.00;2.00;;;;;17.33;51.05;99091.72;4849676;28;104341;-82
2021/09/22 10:30:45;;;;;;;;;2.33;1.00;;;;;17.33;50.90;99081.63;4864660;28;103740;-83
2021/09/22 10:33:27;;;;;;;;;1.33;1.33;;;;;17.33;50.83;99078.88;4858474;28;102321;-83
2021/09/22 10:36:01;;;;;;;;;2.67;2.00;;;;;17.34;51.54;99071.50;4867202;28;102392;-83
2021/09/22 10:38:28;;;;;;;;;2.00;1.67;;;;;17.35;50.46;99074.00;4846784;28;104250;-83
2021/09/22 10:40:59;;;;;;;;;1.67;1.67;;;;;17.35;51.09;99060.34;4863042;28;102137;-82
2021/09/22 10:43:30;;;;;;;;;2.00;2.00;;;;;17.37;50.70;99077.34;4870431;28;102888;-82
2021/09/22 10:46:09;;;;;;;;;1.00;1.00;;;;;17.37;50.84;99076.53;4866330;28;102480;-82
2021/09/22 10:49:04;;;;;;;;;2.00;1.00;;;;;17.37;51.01;99084.72;4857342;28;109056;-82
2021/09/22 10:51:33;;;;;;;;;2.00;2.00;;;;;17.36;51.15;99086.63;4860938;28;102427;-83
2021/09/22 10:54:20;;;;;;;;;1.00;1.00;;;;;17.36;51.35;99080.31;4863779;28;103496;-83
2021/09/22 10:56:54;;;;;;;;;2.00;2.00;;;;;17.36;51.54;99089.34;4860687;28;104148;-83
2021/09/22 10:59:26;;;;;;;;;1.00;1.00;;;;;17.37;51.51;99092.91;4859765;28;104195;-82
2021/09/22 11:01:53;;;;;;;;;2.00;2.00;;;;;17.36;50.89;99086.63;4848478;28;102494;-82
2021/09/22 11:04:20;;;;;;;;;1.00;1.00;;;;;17.36;51.41;99089.34;4861578;28;102496;-82
2021/09/22 11:06:52;;;;;;;;;2.67;2.33;;;;;17.37;51.77;99092.91;4850762;28;102344;-83
2021/09/22 11:09:23;;;;;;;;;2.00;2.00;;;;;17.37;50.74;99090.19;4841634;28;104144;-83
2021/09/22 11:11:53;;;;;;;;;1.67;1.67;;;;;17.37;50.55;99090.19;4849311;28;102571;-83
2021/09/22 11:14:34;;;;;;;;;2.00;1.67;;;;;17.37;51.90;99087.44;4852159;28;103462;-82
2021/09/22 11:17:16;;;;;;;;;2.00;2.00;;;;;17.38;51.15;99083.66;4850728;28;102448;-82
2021/09/22 11:19:46;;;;;;;;;1.67;1.67;;;;;17.37;51.40;99088.28;4845583;28;109082;-83
2021/09/22 11:22:19;;;;;;;;;1.00;1.00;;;;;17.38;51.13;99084.47;4849969;28;102271;-83
2021/09/22 11:24:47;;;;;;;;;1.00;1.00;;;;;17.37;51.95;99090.19;4858442;28;102245;-82
2021/09/22 11:27:16;;;;;;;;;3.00;3.00;;;;;17.39;52.02;99090.78;4865553;28;102550;-82
2021/09/22 11:29:51;;;;;;;;;1.00;1.00;;;;;17.39;51.93;99093.50;4847822;28;103841;-83